createdAt,value
2019-03-23T00:03:00.785Z,13.67
2019-03-23T00:07:06.687Z,13.60
2019-03-23T00:11:12.470Z,13.76
2019-03-23T00:15:18.582Z,13.76
2019-03-23T00:19:24.284Z,13.55
2019-03-23T00:23:30.010Z,13.68
2019-03-23T00:27:35.712Z,13.85
2019-03-23T00:31:41.503Z,13.88
2019-03-23T00:35:47.352Z,13.77
2019-03-23T00:39:53.052Z,13.79
2019-03-23T00:43:58.761Z,13.81
2019-03-23T00:48:04.690Z,13.71
2019-03-23T00:52:10.460Z,13.58
2019-03-23T00:56:16.635Z,13.52
2019-03-23T01:00:22.455Z,13.40
2019-03-23T01:04:28.151Z,13.34
2019-03-23T01:08:33.866Z,13.37
2019-03-23T01:12:40.038Z,13.15
2019-03-23T01:16:45.743Z,13.17
2019-03-23T01:20:51.527Z,13.41
2019-03-23T01:24:57.228Z,13.23
2019-03-23T01:29:02.938Z,13.09
2019-03-23T01:33:08.830Z,13.11
2019-03-23T01:37:14.589Z,13.09
2019-03-23T01:41:20.423Z,13.01
2019-03-23T01:45:27.775Z,12.87
2019-03-23T01:49:34.424Z,12.92
2019-03-23T01:53:40.133Z,13.09
2019-03-23T01:57:45.833Z,12.91
2019-03-23T02:01:51.546Z,12.77
2019-03-23T02:05:58.364Z,12.75
2019-03-23T02:10:06.144Z,12.56
2019-03-23T02:14:12.924Z,12.54
2019-03-23T02:18:18.621Z,12.68
2019-03-23T02:22:24.382Z,12.76
2019-03-23T02:26:30.091Z,12.83
2019-03-23T02:30:35.786Z,12.78
2019-03-23T02:34:41.562Z,12.74
2019-03-23T02:38:47.268Z,12.79
2019-03-23T02:42:52.969Z,12.88
2019-03-23T02:46:58.684Z,12.66
2019-03-23T02:51:04.388Z,12.48
2019-03-23T02:55:11.403Z,12.28
2019-03-23T02:59:17.105Z,12.26
2019-03-23T03:03:22.810Z,12.35
2019-03-23T03:07:40.980Z,12.25
2019-03-23T03:11:35.915Z,12.29
2019-03-23T03:15:41.682Z,12.21
2019-03-23T03:19:47.373Z,12.22
2019-03-23T03:23:53.162Z,12.29
2019-03-23T03:27:58.844Z,12.44
2019-03-23T03:32:04.757Z,12.53
2019-03-23T03:36:10.603Z,12.37
2019-03-23T03:40:16.683Z,12.19
2019-03-23T03:44:22.373Z,12.15
2019-03-23T03:48:28.095Z,12.24
2019-03-23T03:52:33.798Z,12.18
2019-03-23T03:56:39.501Z,12.17
2019-03-23T04:00:45.201Z,12.17
2019-03-23T04:04:50.914Z,12.24
2019-03-23T04:08:56.611Z,12.26
2019-03-23T04:13:02.314Z,12.08
2019-03-23T04:17:08.217Z,11.82
2019-03-23T04:21:13.938Z,11.88
2019-03-23T04:25:19.632Z,11.96
2019-03-23T04:29:25.315Z,11.88
2019-03-23T04:33:31.013Z,11.86
2019-03-23T04:37:36.710Z,11.94
2019-03-23T04:41:42.476Z,11.97
2019-03-23T04:45:48.170Z,12.07
2019-03-23T04:49:53.847Z,12.04
2019-03-23T04:53:59.556Z,11.85
2019-03-23T04:58:05.408Z,11.80
2019-03-23T05:02:11.128Z,11.90
2019-03-23T05:06:16.834Z,11.86
2019-03-23T05:10:22.510Z,11.77
2019-03-23T05:14:28.216Z,11.64
2019-03-23T05:18:33.922Z,11.51
2019-03-23T05:22:39.718Z,11.56
2019-03-23T05:26:45.423Z,11.55
2019-03-23T05:30:51.160Z,11.51
2019-03-23T05:34:56.871Z,11.50
2019-03-23T05:39:02.719Z,11.48
2019-03-23T05:43:08.451Z,11.56
2019-03-23T05:47:14.100Z,11.73
2019-03-23T05:51:19.859Z,11.76
2019-03-23T05:55:26.254Z,11.78
2019-03-23T05:59:33.684Z,11.85
2019-03-23T06:03:39.391Z,11.98
2019-03-23T06:07:45.081Z,12.07
2019-03-23T06:11:50.963Z,12.10
2019-03-23T06:15:56.691Z,12.22
2019-03-23T06:20:04.640Z,12.22
2019-03-23T06:24:09.788Z,12.11
2019-03-23T06:28:15.481Z,12.35
2019-03-23T06:32:21.190Z,12.43
2019-03-23T06:36:26.910Z,12.56
2019-03-23T06:40:32.637Z,12.58
2019-03-23T06:44:38.351Z,12.50
2019-03-23T06:48:44.042Z,12.74
2019-03-23T06:52:49.750Z,12.84
2019-03-23T06:56:55.462Z,13.04
2019-03-23T07:01:01.237Z,13.74
2019-03-23T07:05:09.826Z,14.49
2019-03-23T07:09:16.553Z,15.15
2019-03-23T07:13:22.409Z,15.54
2019-03-23T07:17:28.121Z,15.91
2019-03-23T07:21:33.830Z,16.21
2019-03-23T07:25:39.521Z,16.23
2019-03-23T07:29:45.218Z,16.56
2019-03-23T07:34:02.253Z,17.21
2019-03-23T07:38:07.997Z,17.61
2019-03-23T07:42:13.705Z,18.06
2019-03-23T07:46:19.446Z,18.49
2019-03-23T07:50:26.225Z,18.40
2019-03-23T07:54:31.946Z,18.58
2019-03-23T07:58:37.724Z,19.01
2019-03-23T08:02:43.557Z,19.47
2019-03-23T08:06:49.273Z,19.87
2019-03-23T08:10:54.996Z,20.22
2019-03-23T08:15:00.777Z,20.57
2019-03-23T08:19:06.506Z,21.03
2019-03-23T08:23:12.194Z,21.40
2019-03-23T08:27:17.963Z,21.77
2019-03-23T08:31:23.684Z,22.15
2019-03-23T08:35:29.399Z,22.68
2019-03-23T08:39:35.110Z,23.23
2019-03-23T08:43:40.806Z,23.80
2019-03-23T08:47:46.478Z,24.22
2019-03-23T08:51:52.268Z,24.74
2019-03-23T08:55:58.014Z,25.15
2019-03-23T09:00:07.541Z,25.56
2019-03-23T09:04:13.469Z,25.96
2019-03-23T09:08:19.170Z,26.57
2019-03-23T09:12:24.879Z,27.07
2019-03-23T09:16:30.583Z,27.59
2019-03-23T09:20:36.305Z,27.95
2019-03-23T09:24:42.014Z,28.27
2019-03-23T09:28:47.786Z,28.42
2019-03-23T09:32:53.506Z,28.58
2019-03-23T09:36:59.212Z,28.49
2019-03-23T09:41:05.071Z,28.35
2019-03-23T09:45:10.976Z,28.33
2019-03-23T09:49:16.699Z,28.26
2019-03-23T09:53:22.397Z,27.14
2019-03-23T09:57:28.094Z,26.85
2019-03-23T10:01:33.812Z,26.48
2019-03-23T10:05:39.494Z,25.93
2019-03-23T10:09:45.197Z,25.67
2019-03-23T10:13:50.895Z,25.83
2019-03-23T10:17:56.616Z,25.48
2019-03-23T10:22:02.328Z,25.58
2019-03-23T10:26:08.203Z,26.06
2019-03-23T10:30:14.139Z,26.53
2019-03-23T10:34:19.875Z,26.68
2019-03-23T10:38:25.626Z,28.39
2019-03-23T10:42:31.328Z,29.57
2019-03-23T10:46:37.029Z,29.92
2019-03-23T10:50:42.733Z,30.72
2019-03-23T10:54:48.524Z,31.93
2019-03-23T10:58:55.217Z,32.55
2019-03-23T11:03:00.891Z,33.04
2019-03-23T11:07:06.590Z,33.58
2019-03-23T11:11:12.576Z,34.05
2019-03-23T11:15:18.268Z,34.17
2019-03-23T11:19:24.017Z,34.44
2019-03-23T11:23:29.709Z,34.60
2019-03-23T11:27:35.549Z,34.95
2019-03-23T11:31:41.283Z,35.31
2019-03-23T11:35:57.264Z,35.77
2019-03-23T11:39:54.663Z,35.93
2019-03-23T11:44:00.357Z,35.84
2019-03-23T11:48:06.138Z,35.62
2019-03-23T11:52:11.899Z,35.67
2019-03-23T11:56:17.703Z,35.77
2019-03-23T12:00:24.194Z,35.65
2019-03-23T12:04:29.901Z,35.52
2019-03-23T12:08:35.609Z,34.34
2019-03-23T12:12:41.596Z,33.69
2019-03-23T12:16:47.341Z,33.98
2019-03-23T12:20:53.010Z,34.00
2019-03-23T12:24:58.729Z,32.94
2019-03-23T12:29:04.476Z,32.11
2019-03-23T12:33:10.345Z,30.81
2019-03-23T12:37:16.033Z,29.83
2019-03-23T12:41:23.275Z,29.08
2019-03-23T12:45:29.280Z,28.74
2019-03-23T12:49:35.051Z,28.67
2019-03-23T12:53:40.738Z,28.69
2019-03-23T12:57:46.426Z,29.30
2019-03-23T13:01:52.131Z,30.13
2019-03-23T13:05:57.855Z,30.43
2019-03-23T13:10:04.763Z,30.11
2019-03-23T13:14:10.615Z,29.39
2019-03-23T13:18:26.703Z,28.95
2019-03-23T13:22:23.679Z,28.47
2019-03-23T13:26:29.427Z,28.40
2019-03-23T13:30:35.168Z,28.77
2019-03-23T13:34:40.838Z,29.10
2019-03-23T13:38:46.623Z,29.85
2019-03-23T13:42:52.350Z,31.16
2019-03-23T13:46:58.064Z,32.23
2019-03-23T13:51:03.765Z,32.63
2019-03-23T13:55:13.157Z,32.85
2019-03-23T13:59:18.856Z,33.03
2019-03-23T14:03:24.579Z,32.90
2019-03-23T14:07:30.327Z,32.79
2019-03-23T14:11:36.036Z,32.76
2019-03-23T14:15:41.850Z,32.57
2019-03-23T14:19:47.560Z,32.61
2019-03-23T14:23:55.171Z,32.25
2019-03-23T14:28:00.678Z,32.22
2019-03-23T14:32:06.413Z,31.81
2019-03-23T14:36:12.346Z,31.39
2019-03-23T14:40:18.057Z,31.20
2019-03-23T14:44:23.755Z,31.02
2019-03-23T14:48:29.455Z,30.82
2019-03-23T14:52:36.467Z,30.46
2019-03-23T14:56:42.269Z,30.10
2019-03-23T15:00:48.025Z,29.58
2019-03-23T15:04:53.732Z,29.28
2019-03-23T15:08:59.511Z,28.76
2019-03-23T15:13:05.222Z,28.03
2019-03-23T15:17:11.066Z,27.92
2019-03-23T15:21:16.784Z,27.70
2019-03-23T15:25:22.617Z,26.71
2019-03-23T15:29:28.361Z,26.36
2019-03-23T15:33:34.088Z,26.08
2019-03-23T15:37:39.809Z,25.35
2019-03-23T15:41:46.609Z,25.39
2019-03-23T15:45:52.316Z,25.52
2019-03-23T15:49:58.037Z,25.38
2019-03-23T15:54:03.716Z,25.39
2019-03-23T15:58:09.469Z,25.38
2019-03-23T16:02:15.391Z,25.22
2019-03-23T16:06:21.121Z,24.84
2019-03-23T16:10:26.880Z,24.50
2019-03-23T16:14:32.571Z,24.17
2019-03-23T16:18:38.312Z,23.98
2019-03-23T16:22:44.029Z,23.75
2019-03-23T16:26:49.768Z,23.64
2019-03-23T16:30:55.501Z,23.65
2019-03-23T16:35:01.265Z,23.50
2019-03-23T16:39:07.716Z,23.30
2019-03-23T16:43:19.452Z,23.27
2019-03-23T16:47:25.165Z,23.21
2019-03-23T16:51:30.850Z,23.24
2019-03-23T16:55:36.557Z,23.23
2019-03-23T16:59:42.264Z,23.13
2019-03-23T17:03:47.964Z,22.98
2019-03-23T17:07:53.674Z,22.83
2019-03-23T17:11:59.412Z,22.71
2019-03-23T17:16:05.180Z,22.68
2019-03-23T17:20:11.357Z,22.56
2019-03-23T17:24:17.145Z,22.39
2019-03-23T17:28:22.997Z,22.31
2019-03-23T17:32:28.765Z,22.21
2019-03-23T17:36:34.472Z,22.09
2019-03-23T17:40:40.199Z,22.03
2019-03-23T17:44:46.259Z,21.90
2019-03-23T17:48:52.996Z,21.85
2019-03-23T17:52:58.663Z,21.78
2019-03-23T17:57:04.389Z,21.61
2019-03-23T18:01:19.384Z,21.13
2019-03-23T18:05:21.041Z,20.94
2019-03-23T18:21:14.502Z,20.54
2019-03-23T18:36:43.381Z,20.02
2019-03-23T18:40:52.618Z,18.61
2019-03-23T18:45:19.441Z,18.57
2019-03-23T18:49:25.223Z,19.01
2019-03-23T18:53:30.991Z,19.19
2019-03-23T18:57:36.711Z,18.90
2019-03-23T19:01:42.426Z,18.60
2019-03-23T19:05:48.215Z,17.78
2019-03-23T19:09:53.920Z,17.10
2019-03-23T19:13:59.631Z,17.03
2019-03-23T19:18:06.883Z,17.28
2019-03-23T19:22:18.762Z,17.67
2019-03-23T19:26:24.491Z,17.65
2019-03-23T19:30:30.275Z,17.30
2019-03-23T19:34:35.992Z,17.25
2019-03-23T19:38:41.682Z,17.00
2019-03-23T19:42:47.399Z,17.01
2019-03-23T19:46:53.108Z,16.86
2019-03-23T19:50:58.807Z,16.58
2019-03-23T19:55:07.275Z,16.37
2019-03-23T19:59:12.978Z,16.29
2019-03-23T20:03:19.294Z,16.45
2019-03-23T20:07:32.710Z,16.47
2019-03-23T20:11:32.622Z,16.42
2019-03-23T20:15:38.407Z,16.25
2019-03-23T20:19:44.173Z,16.47
2019-03-23T20:23:51.301Z,16.34
2019-03-23T20:27:57.113Z,16.47
2019-03-23T20:32:17.637Z,16.28
2019-03-23T20:36:23.398Z,16.27
2019-03-23T20:40:29.180Z,16.51
2019-03-23T20:44:35.046Z,16.27
2019-03-23T20:48:41.077Z,15.95
2019-03-23T20:52:47.397Z,15.84
2019-03-23T20:56:53.105Z,15.77
2019-03-23T21:00:58.802Z,15.57
2019-03-23T21:05:05.537Z,15.63
2019-03-23T21:09:11.696Z,15.69
2019-03-23T21:13:17.409Z,15.49
2019-03-23T21:17:23.119Z,15.55
2019-03-23T21:21:28.798Z,15.38
2019-03-23T21:25:34.527Z,15.40
2019-03-23T21:29:41.237Z,15.66
2019-03-23T21:33:47.031Z,15.98
2019-03-23T21:37:52.786Z,15.96
2019-03-23T21:41:58.504Z,15.85
2019-03-23T21:46:04.338Z,15.52
2019-03-23T21:50:11.232Z,15.36
2019-03-23T21:54:17.371Z,15.25
2019-03-23T21:58:24.183Z,15.41
2019-03-23T22:02:29.886Z,15.23
2019-03-23T22:06:35.574Z,15.01
2019-03-23T22:10:41.282Z,15.21
2019-03-23T22:14:46.976Z,15.33
2019-03-23T22:18:52.690Z,15.26
2019-03-23T22:22:58.375Z,14.78
2019-03-23T22:28:16.090Z,14.75
2019-03-23T22:37:17.545Z,14.10
2019-03-23T22:47:18.932Z,13.66
2019-03-23T22:52:18.567Z,13.89
2019-03-23T22:57:48.019Z,13.78
2019-03-23T23:01:53.791Z,13.55
2019-03-23T23:05:59.542Z,13.54
2019-03-23T23:10:07.151Z,13.44
2019-03-23T23:14:13.146Z,13.40
2019-03-23T23:18:18.921Z,13.49
2019-03-23T23:22:24.614Z,13.58
2019-03-23T23:26:30.322Z,13.34
2019-03-23T23:30:36.213Z,13.34
2019-03-23T23:34:41.889Z,13.24
2019-03-23T23:38:47.587Z,13.02
2019-03-23T23:42:53.274Z,12.86
2019-03-23T23:46:59.003Z,12.69
2019-03-23T23:51:04.723Z,12.76
2019-03-23T23:55:12.519Z,12.79
2019-03-23T23:59:18.216Z,12.76
